Time;durP1;ratioP1;P1;durP2;ratioP2;P2;SDS_P1;SDS_P2;PMS_P1;PMS_P2;Temp;Humidity;BMP_temperature;BMP_pressure;BME280_temperature;BME280_humidity;BME280_pressure;Samples;Min_cycle;Max_cycle;Signal;HPM_P1;HPM_P2
2021/07/13 00:00:18;;;;;;;1.75;1.58;;;19.50;99.90;;;;;;4944144;29;20535;-78
2021/07/13 00:02:44;;;;;;;1.88;1.77;;;19.60;99.90;;;;;;4943866;29;20294;-78
2021/07/13 00:05:16;;;;;;;3.78;1.70;;;19.60;99.90;;;;;;4942352;29;20291;-78
2021/07/13 00:07:44;;;;;;;1.55;1.45;;;19.60;99.90;;;;;;4942164;28;20185;-77
2021/07/13 00:10:11;;;;;;;1.83;1.50;;;19.60;99.90;;;;;;4932334;29;20269;-79
2021/07/13 00:12:37;;;;;;;2.00;1.80;;;19.50;99.90;;;;;;4942483;29;20214;-78
2021/07/13 00:15:13;;;;;;;2.85;1.48;;;19.50;99.90;;;;;;4943731;29;20675;-78
2021/07/13 00:17:40;;;;;;;1.55;1.42;;;19.50;99.90;;;;;;4943410;29;20213;-77
2021/07/13 00:20:07;;;;;;;1.65;1.50;;;19.50;99.90;;;;;;4945199;29;20190;-78
2021/07/13 00:22:33;;;;;;;2.65;1.77;;;19.50;99.90;;;;;;4943265;28;20206;-78
2021/07/13 00:24:59;;;;;;;1.60;1.50;;;19.40;99.90;;;;;;4942384;29;20192;-78
2021/07/13 00:27:24;;;;;;;1.75;1.58;;;19.30;99.90;;;;;;4944286;29;20249;-77
2021/07/13 00:29:51;;;;;;;1.70;1.60;;;19.20;99.90;;;;;;4943423;28;20703;-78
2021/07/13 00:32:16;;;;;;;1.65;1.55;;;19.10;99.90;;;;;;4945693;28;20193;-77
2021/07/13 00:34:42;;;;;;;1.77;1.67;;;19.00;99.90;;;;;;4944062;29;20192;-78
2021/07/13 00:37:08;;;;;;;1.77;1.67;;;19.00;99.90;;;;;;4942254;29;20672;-78
2021/07/13 00:39:33;;;;;;;3.92;1.90;;;19.00;99.90;;;;;;4943163;29;20244;-78
2021/07/13 00:41:59;;;;;;;1.63;1.52;;;19.00;99.90;;;;;;4942479;29;20186;-78
2021/07/13 00:44:24;;;;;;;2.13;1.92;;;18.90;99.90;;;;;;4944908;28;20233;-78
2021/07/13 00:46:51;;;;;;;2.22;2.03;;;18.90;99.90;;;;;;4944553;28;20193;-78
2021/07/13 00:49:17;;;;;;;1.85;1.70;;;18.90;99.90;;;;;;4942087;29;20198;-79
2021/07/13 00:51:46;;;;;;;1.77;1.67;;;18.80;99.90;;;;;;4940556;29;20193;-78
2021/07/13 00:54:14;;;;;;;1.80;1.70;;;18.70;99.90;;;;;;4945486;29;20695;-77
2021/07/13 00:56:42;;;;;;;1.85;1.70;;;18.60;99.90;;;;;;4944450;29;20185;-78
2021/07/13 00:59:08;;;;;;;1.95;1.85;;;18.60;99.90;;;;;;4956673;23;20732;-76
2021/07/13 01:01:34;;;;;;;1.80;1.70;;;18.50;99.90;;;;;;4940954;28;20193;-73
2021/07/13 01:04:03;;;;;;;2.05;1.85;;;18.40;99.90;;;;;;4940984;28;20194;-76
2021/07/13 01:07:03;;;;;;;1.60;1.50;;;18.40;99.90;;;;;;4953818;28;20189;-74
2021/07/13 01:09:43;;;;;;;6.88;2.67;;;18.30;99.90;;;;;;4936894;29;20326;-77
2021/07/13 01:12:44;;;;;;;1.58;1.48;;;18.10;99.90;;;;;;4941436;29;20200;-76
2021/07/13 01:15:10;;;;;;;1.83;1.60;;;18.10;99.90;;;;;;4939057;28;20186;-77
2021/07/13 01:17:51;;;;;;;1.90;1.70;;;18.10;99.90;;;;;;4940244;29;20186;-78
2021/07/13 01:20:47;;;;;;;2.38;1.88;;;18.00;99.90;;;;;;4941825;29;20201;-79
2021/07/13 01:23:34;;;;;;;2.22;2.03;;;18.00;99.90;;;;;;4941285;29;20183;-75
2021/07/13 01:26:13;;;;;;;1.73;1.50;;;18.00;99.90;;;;;;4941816;29;20187;-76
2021/07/13 01:28:43;;;;;;;3.28;2.05;;;18.00;99.90;;;;;;4938791;29;20215;-74
2021/07/13 01:31:12;;;;;;;2.25;2.05;;;17.90;99.90;;;;;;4941094;28;20193;-74
2021/07/13 01:33:45;;;;;;;1.70;1.60;;;17.90;99.90;;;;;;4935555;29;20635;-74
2021/07/13 01:36:26;;;;;;;2.72;2.10;;;17.90;99.90;;;;;;4938584;29;20190;-77
2021/07/13 01:38:54;;;;;;;2.10;1.90;;;17.80;99.90;;;;;;4937278;28;20732;-77
2021/07/13 01:41:23;;;;;;;1.98;1.88;;;17.90;99.90;;;;;;4942369;29;20186;-76
2021/07/13 01:43:50;;;;;;;1.63;1.52;;;17.80;99.90;;;;;;4940093;28;20701;-76
2021/07/13 01:46:18;;;;;;;1.65;1.55;;;17.80;99.90;;;;;;4939159;28;20182;-79
2021/07/13 01:48:46;;;;;;;1.90;1.80;;;17.80;99.90;;;;;;4937887;29;20776;-75
2021/07/13 01:51:13;;;;;;;1.85;1.65;;;17.70;99.90;;;;;;4940057;28;20261;-76
2021/07/13 01:53:39;;;;;;;1.88;1.77;;;17.70;99.90;;;;;;4938478;29;20182;-76
2021/07/13 01:56:07;;;;;;;2.05;1.80;;;17.70;99.90;;;;;;4940489;28;20269;-75
2021/07/13 01:58:33;;;;;;;1.55;1.45;;;17.70;99.90;;;;;;4937697;29;20217;-76
2021/07/13 02:01:06;;;;;;;2.03;1.85;;;17.60;99.90;;;;;;4939378;29;20204;-77
2021/07/13 02:03:32;;;;;;;1.77;1.67;;;17.50;99.90;;;;;;4937401;28;20186;-74
2021/07/13 02:06:00;;;;;;;3.55;2.42;;;17.50;99.90;;;;;;4939420;28;20713;-78
2021/07/13 02:08:26;;;;;;;2.08;1.88;;;17.50;99.90;;;;;;4938401;29;20653;-75
2021/07/13 02:10:52;;;;;;;2.00;1.80;;;17.50;99.90;;;;;;4939986;29;20303;-73
2021/07/13 02:13:19;;;;;;;2.38;1.88;;;17.50;99.90;;;;;;4936282;29;20706;-76
2021/07/13 02:15:45;;;;;;;2.08;1.70;;;17.50;99.90;;;;;;4940406;29;20185;-79
2021/07/13 02:18:12;;;;;;;3.55;1.90;;;17.60;99.90;;;;;;4940085;29;20206;-76
2021/07/13 02:20:38;;;;;;;2.42;2.03;;;17.50;99.90;;;;;;4937683;28;20206;-78
2021/07/13 02:23:05;;;;;;;1.73;1.63;;;17.50;99.90;;;;;;4936725;29;20700;-75
2021/07/13 02:25:31;;;;;;;2.20;2.00;;;17.40;99.90;;;;;;4938639;29;20181;-77
2021/07/13 02:28:26;;;;;;;1.98;1.83;;;17.50;99.90;;;;;;4930929;29;20559;-74
2021/07/13 02:30:57;;;;;;;2.20;2.00;;;17.40;99.90;;;;;;4938575;28;20573;-75
2021/07/13 02:33:33;;;;;;;2.28;2.08;;;17.40;99.90;;;;;;4939066;29;20224;-76
2021/07/13 02:36:03;;;;;;;3.83;2.13;;;17.40;99.90;;;;;;4942514;29;20220;-78
2021/07/13 02:38:30;;;;;;;2.95;2.20;;;17.40;99.90;;;;;;4937187;28;20221;-77
2021/07/13 02:40:56;;;;;;;2.30;2.10;;;17.30;99.90;;;;;;4929833;29;20209;-78
2021/07/13 02:43:22;;;;;;;2.17;1.85;;;17.20;99.90;;;;;;4938365;29;20189;-75
2021/07/13 02:45:51;;;;;;;2.25;2.03;;;17.20;99.90;;;;;;4929773;29;20272;-77
2021/07/13 02:48:18;;;;;;;2.17;1.98;;;17.20;99.90;;;;;;4939597;29;20627;-77
2021/07/13 02:50:45;;;;;;;2.28;1.88;;;17.20;99.90;;;;;;4940377;29;20243;-77
2021/07/13 02:53:13;;;;;;;3.15;2.33;;;17.20;99.90;;;;;;4937764;29;20182;-74
2021/07/13 02:55:39;;;;;;;2.20;2.00;;;17.20;99.90;;;;;;4939786;29;20753;-76
2021/07/13 02:58:06;;;;;;;2.13;1.92;;;17.10;99.90;;;;;;4939273;29;20872;-75
2021/07/13 03:00:34;;;;;;;2.28;2.08;;;17.10;99.90;;;;;;4946909;29;20573;-76
2021/07/13 03:03:00;;;;;;;4.07;2.30;;;17.10;99.90;;;;;;4938869;29;20174;-74
2021/07/13 03:05:26;;;;;;;1.77;1.65;;;17.10;99.90;;;;;;4938206;29;20185;-76
2021/07/13 03:07:53;;;;;;;2.45;2.20;;;17.10;99.90;;;;;;4936837;29;20186;-79
2021/07/13 03:10:24;;;;;;;2.58;2.38;;;17.10;99.90;;;;;;4938381;29;20210;-77
2021/07/13 03:12:55;;;;;;;3.65;2.60;;;17.00;99.90;;;;;;4938049;29;20192;-77
2021/07/13 03:15:22;;;;;;;3.90;2.47;;;17.00;99.90;;;;;;4930281;29;20296;-78
2021/07/13 03:17:48;;;;;;;2.40;2.20;;;17.00;99.90;;;;;;4938618;28;20214;-76
2021/07/13 03:20:14;;;;;;;2.75;2.33;;;17.00;99.90;;;;;;4936774;29;20273;-77
2021/07/13 03:22:46;;;;;;;3.42;2.72;;;16.90;99.90;;;;;;4939456;29;20655;-77
2021/07/13 03:25:16;;;;;;;3.75;3.00;;;16.80;99.90;;;;;;4935737;29;20209;-74
2021/07/13 03:27:42;;;;;;;4.55;2.67;;;16.80;99.90;;;;;;4940110;29;20185;-76
2021/07/13 03:30:09;;;;;;;2.80;2.60;;;16.80;99.90;;;;;;4937748;29;20544;-76
2021/07/13 03:32:35;;;;;;;3.83;2.45;;;17.00;99.90;;;;;;4935895;29;20189;-74
2021/07/13 03:35:01;;;;;;;3.60;2.88;;;17.00;99.90;;;;;;4932760;28;20174;-74
2021/07/13 03:37:29;;;;;;;2.42;2.22;;;16.90;99.90;;;;;;4939362;29;20185;-74
2021/07/13 03:39:56;;;;;;;4.00;2.60;;;16.90;99.90;;;;;;4936581;29;20292;-75
2021/07/13 03:42:22;;;;;;;2.90;2.60;;;16.90;99.90;;;;;;4936387;29;20386;-74
2021/07/13 03:44:49;;;;;;;3.53;2.80;;;16.90;99.90;;;;;;4935129;28;20637;-75
2021/07/13 03:47:16;;;;;;;3.40;2.40;;;17.00;99.90;;;;;;4933149;29;20597;-74
2021/07/13 03:49:46;;;;;;;2.60;2.40;;;17.10;99.90;;;;;;4937251;28;20290;-75
2021/07/13 03:52:13;;;;;;;2.97;2.30;;;17.00;99.90;;;;;;4936517;29;20634;-74
2021/07/13 03:54:39;;;;;;;2.47;2.28;;;17.00;99.90;;;;;;4933703;29;20605;-74
2021/07/13 03:57:06;;;;;;;2.58;2.35;;;17.20;99.90;;;;;;4939770;28;20276;-73
2021/07/13 03:59:31;;;;;;;2.40;2.20;;;17.20;99.90;;;;;;4942758;29;20481;-75
2021/07/13 04:01:57;;;;;;;4.00;2.60;;;17.20;99.90;;;;;;4940326;28;20178;-74
2021/07/13 04:04:24;;;;;;;2.60;2.40;;;17.30;99.90;;;;;;4941140;29;20577;-75
2021/07/13 04:06:49;;;;;;;3.00;2.70;;;17.40;99.90;;;;;;4940376;29;20305;-74
2021/07/13 04:09:15;;;;;;;3.67;2.25;;;17.50;99.90;;;;;;4939493;28;20289;-74
2021/07/13 04:11:41;;;;;;;3.47;2.65;;;17.60;99.90;;;;;;4945569;29;20193;-75
2021/07/13 04:14:07;;;;;;;2.67;2.40;;;17.70;99.90;;;;;;4940695;29;20289;-74
2021/07/13 04:16:33;;;;;;;3.22;2.88;;;17.80;99.90;;;;;;4937608;28;20579;-74
2021/07/13 04:19:00;;;;;;;3.28;2.70;;;17.80;99.90;;;;;;4938078;29;20214;-74
2021/07/13 04:21:26;;;;;;;2.50;2.30;;;18.00;99.90;;;;;;4937988;29;20210;-74
2021/07/13 04:23:52;;;;;;;3.00;2.65;;;18.00;99.90;;;;;;4938338;29;20190;-74
2021/07/13 04:26:18;;;;;;;2.80;2.60;;;18.10;99.90;;;;;;4939170;28;20190;-74
2021/07/13 04:28:43;;;;;;;2.63;2.40;;;18.10;99.90;;;;;;4940223;28;20269;-75
2021/07/13 04:31:09;;;;;;;3.22;2.92;;;18.20;99.90;;;;;;4938862;29;20186;-74
2021/07/13 04:33:35;;;;;;;3.60;2.78;;;18.50;99.90;;;;;;4938335;29;20660;-75
2021/07/13 04:36:00;;;;;;;5.32;3.17;;;18.80;99.90;;;;;;4941290;28;20185;-75
2021/07/13 04:38:26;;;;;;;3.75;2.75;;;19.20;99.90;;;;;;4940909;29;20217;-74
2021/07/13 04:40:52;;;;;;;2.70;2.25;;;19.90;99.90;;;;;;4941868;29;20197;-75
2021/07/13 04:43:18;;;;;;;3.75;2.40;;;20.80;99.90;;;;;;4938462;28;20193;-74
2021/07/13 04:45:44;;;;;;;3.17;2.40;;;21.30;99.90;;;;;;4942703;28;20182;-74
2021/07/13 04:48:09;;;;;;;4.30;2.00;;;21.60;99.90;;;;;;4942256;28;20197;-74
2021/07/13 04:50:35;;;;;;;2.60;2.40;;;22.10;99.90;;;;;;4939540;29;20215;-73
2021/07/13 04:53:01;;;;;;;2.30;2.03;;;22.80;99.90;;;;;;4935841;28;20269;-74
2021/07/13 04:55:27;;;;;;;2.38;2.17;;;23.20;99.90;;;;;;4937247;28;20185;-74
2021/07/13 04:57:53;;;;;;;3.33;2.70;;;23.60;99.90;;;;;;4935301;28;20545;-74
2021/07/13 05:00:18;;;;;;;2.55;2.22;;;23.90;99.90;;;;;;4935544;28;20217;-74
2021/07/13 05:02:44;;;;;;;3.38;2.10;;;24.20;99.90;;;;;;4942355;28;20636;-75
2021/07/13 05:05:11;;;;;;;2.85;2.20;;;24.50;99.90;;;;;;4935386;28;20342;-74
2021/07/13 05:07:47;;;;;;;2.85;1.92;;;24.60;99.90;;;;;;4929621;28;20182;-74
2021/07/13 05:10:14;;;;;;;2.78;2.45;;;24.50;99.90;;;;;;4937887;29;20216;-74
2021/07/13 05:12:40;;;;;;;5.03;2.30;;;24.50;99.90;;;;;;4937382;28;20181;-73
2021/07/13 05:15:08;;;;;;;3.42;2.45;;;24.60;99.90;;;;;;4940865;29;20189;-73
2021/07/13 05:17:36;;;;;;;2.35;2.15;;;24.40;99.90;;;;;;4938842;28;20186;-73
2021/07/13 05:20:03;;;;;;;2.30;2.10;;;24.30;99.90;;;;;;4943801;28;20677;-74
2021/07/13 05:22:29;;;;;;;4.20;2.38;;;24.30;99.90;;;;;;4934983;29;20237;-74
2021/07/13 05:24:54;;;;;;;2.75;2.13;;;24.60;99.90;;;;;;4937832;29;20588;-73
2021/07/13 05:27:20;;;;;;;2.35;2.15;;;25.10;99.90;;;;;;4939244;28;20193;-74
2021/07/13 05:29:45;;;;;;;2.35;2.15;;;25.30;99.90;;;;;;4935118;29;20838;-73
2021/07/13 05:32:11;;;;;;;2.53;2.15;;;25.00;99.90;;;;;;4937144;28;20196;-74
2021/07/13 05:34:36;;;;;;;3.03;2.55;;;24.70;99.90;;;;;;4935457;29;20200;-74
2021/07/13 05:37:04;;;;;;;2.78;2.47;;;24.20;99.90;;;;;;4933583;29;20198;-75
2021/07/13 05:39:30;;;;;;;2.80;2.10;;;24.00;99.90;;;;;;4934242;28;20214;-73
2021/07/13 05:41:55;;;;;;;2.63;2.35;;;23.90;99.90;;;;;;4926736;29;20181;-74
2021/07/13 05:44:21;;;;;;;2.80;2.50;;;23.70;99.90;;;;;;4932257;29;20292;-74
2021/07/13 05:46:47;;;;;;;2.70;2.50;;;23.50;99.90;;;;;;4934502;29;20189;-73
2021/07/13 05:49:12;;;;;;;3.30;2.03;;;23.10;99.90;;;;;;4934446;29;20228;-73
2021/07/13 05:51:38;;;;;;;3.10;2.58;;;22.80;99.90;;;;;;4934673;29;20665;-74
2021/07/13 05:54:03;;;;;;;4.28;2.42;;;22.80;99.90;;;;;;4938525;29;20232;-74
2021/07/13 05:56:29;;;;;;;2.60;2.25;;;22.50;99.90;;;;;;4940300;29;20443;-73
2021/07/13 05:58:54;;;;;;;4.90;2.53;;;22.40;99.90;;;;;;4935571;28;20268;-73
2021/07/13 06:01:20;;;;;;;3.22;2.47;;;22.40;99.90;;;;;;4936936;28;20277;-73
2021/07/13 06:03:46;;;;;;;3.30;2.45;;;22.60;99.90;;;;;;4932531;29;20208;-74
2021/07/13 06:06:11;;;;;;;3.33;2.90;;;22.80;99.90;;;;;;4937231;29;20237;-74
2021/07/13 06:08:37;;;;;;;4.63;3.20;;;22.90;99.90;;;;;;4937783;28;20185;-73
2021/07/13 06:11:02;;;;;;;2.75;2.50;;;22.70;99.90;;;;;;4939523;29;20622;-73
2021/07/13 06:13:28;;;;;;;4.13;2.22;;;22.80;99.90;;;;;;4934060;28;20197;-73
2021/07/13 06:15:53;;;;;;;2.95;2.30;;;22.90;99.90;;;;;;4939812;28;20189;-75
2021/07/13 06:18:20;;;;;;;2.83;2.40;;;23.20;99.90;;;;;;4930269;28;20249;-73
2021/07/13 06:20:46;;;;;;;5.35;3.15;;;23.40;99.90;;;;;;4939480;28;20224;-74
2021/07/13 06:23:12;;;;;;;2.97;2.70;;;23.60;99.90;;;;;;4943353;29;20595;-73
2021/07/13 06:25:38;;;;;;;3.10;2.75;;;23.60;99.90;;;;;;4941162;29;20254;-73
2021/07/13 06:28:05;;;;;;;5.18;2.90;;;23.50;99.90;;;;;;4933422;29;20186;-73
2021/07/13 06:30:30;;;;;;;3.38;2.95;;;23.50;99.90;;;;;;4938157;28;20198;-74
2021/07/13 06:32:56;;;;;;;2.97;2.67;;;23.60;99.90;;;;;;4938787;29;20671;-74
2021/07/13 06:35:22;;;;;;;3.17;2.70;;;23.60;99.90;;;;;;4930195;29;20221;-74
2021/07/13 06:37:48;;;;;;;3.30;2.80;;;23.70;99.90;;;;;;4932822;29;20174;-74
2021/07/13 06:40:16;;;;;;;3.65;2.80;;;23.60;99.90;;;;;;4935490;28;20237;-74
2021/07/13 06:42:42;;;;;;;3.30;3.00;;;23.40;99.90;;;;;;4940270;29;20177;-73
2021/07/13 06:45:08;;;;;;;5.63;2.28;;;23.10;99.90;;;;;;4939244;29;20273;-73
2021/07/13 06:47:34;;;;;;;4.32;3.28;;;23.00;99.90;;;;;;4936174;29;20374;-74
2021/07/13 06:50:00;;;;;;;5.95;2.67;;;23.20;99.90;;;;;;4935588;29;20206;-74
2021/07/13 06:52:25;;;;;;;3.95;2.80;;;23.10;99.90;;;;;;4935270;29;20193;-73
2021/07/13 06:54:51;;;;;;;3.83;2.88;;;23.10;99.90;;;;;;4928371;29;20563;-73
2021/07/13 06:57:16;;;;;;;3.55;2.80;;;23.10;99.90;;;;;;4937543;29;20646;-73
2021/07/13 06:59:51;;;;;;;4.15;2.80;;;23.00;99.90;;;;;;4938758;28;20225;-74
2021/07/13 07:02:17;;;;;;;3.85;2.80;;;22.90;99.90;;;;;;4936184;29;20209;-74
2021/07/13 07:04:43;;;;;;;5.25;3.42;;;22.90;99.90;;;;;;4942817;29;20218;-72
2021/07/13 07:07:08;;;;;;;4.18;3.22;;;22.90;99.90;;;;;;4937013;29;20186;-74
2021/07/13 07:09:40;;;;;;;4.28;3.53;;;22.80;99.90;;;;;;4937649;28;20804;-75
2021/07/13 07:12:07;;;;;;;4.15;3.20;;;22.70;99.90;;;;;;4940251;29;20193;-74
2021/07/13 07:14:32;;;;;;;3.95;2.50;;;22.50;99.90;;;;;;4939951;28;20201;-74
2021/07/13 07:16:59;;;;;;;7.10;3.50;;;22.50;99.90;;;;;;4934977;29;20194;-73
2021/07/13 07:19:25;;;;;;;4.28;3.42;;;22.70;99.90;;;;;;4936115;29;20214;-73
2021/07/13 07:21:50;;;;;;;4.28;3.13;;;22.70;99.90;;;;;;4941926;29;20607;-73
2021/07/13 07:31:04;;;;;;;3.15;2.85;;;24.50;99.90;;;;;;4944400;23;20242;-73
2021/07/13 07:33:30;;;;;;;4.40;3.05;;;25.40;99.90;;;;;;4934207;28;20269;-73
2021/07/13 07:35:57;;;;;;;3.55;3.00;;;25.90;99.90;;;;;;4936547;29;20189;-74
2021/07/13 07:38:24;;;;;;;3.15;2.80;;;26.00;99.90;;;;;;4942684;29;20555;-73
2021/07/13 07:40:50;;;;;;;3.92;3.53;;;26.10;99.90;;;;;;4946117;28;20202;-72
2021/07/13 07:43:23;;;;;;;3.53;3.13;;;26.10;99.90;;;;;;4939038;29;20245;-75
2021/07/13 07:45:48;;;;;;;3.50;3.20;;;26.20;99.90;;;;;;4947511;29;20178;-74
2021/07/13 07:48:14;;;;;;;3.75;3.35;;;26.50;99.90;;;;;;4937828;28;20194;-76
2021/07/13 07:50:40;;;;;;;3.80;3.22;;;26.90;99.90;;;;;;4939948;29;20263;-74
2021/07/13 07:53:07;;;;;;;5.18;3.53;;;27.00;99.90;;;;;;4939284;28;20182;-76
2021/07/13 07:58:09;;;;;;;10.02;3.30;;;26.90;99.90;;;;;;4988925;23;20235;-76
2021/07/13 08:00:35;;;;;;;3.20;2.75;;;27.10;99.90;;;;;;4971470;28;20177;-76
2021/07/13 08:03:01;;;;;;;2.90;2.45;;;27.40;99.90;;;;;;4959125;28;20201;-80
2021/07/13 08:05:29;;;;;;;2.88;2.63;;;27.50;99.90;;;;;;4962006;28;20719;-78
2021/07/13 08:07:55;;;;;;;3.33;3.03;;;27.60;99.90;;;;;;4960765;28;20202;-78
2021/07/13 08:10:21;;;;;;;4.53;3.13;;;27.80;99.90;;;;;;4960364;28;20610;-79
2021/07/13 08:12:46;;;;;;;2.53;2.30;;;27.60;99.90;;;;;;4960475;28;20188;-77
2021/07/13 08:15:13;;;;;;;2.72;2.50;;;27.60;99.90;;;;;;4959126;28;20189;-78
2021/07/13 08:17:41;;;;;;;2.88;2.58;;;27.40;99.90;;;;;;4964817;28;20741;-76
2021/07/13 08:20:09;;;;;;;2.58;2.38;;;27.20;99.90;;;;;;4965536;28;20194;-78
2021/07/13 08:22:35;;;;;;;3.03;2.65;;;27.40;99.90;;;;;;4961923;28;20710;-78
2021/07/13 08:25:02;;;;;;;2.47;2.28;;;27.30;99.90;;;;;;4960739;28;20272;-76
2021/07/13 08:27:28;;;;;;;2.58;2.20;;;27.40;99.90;;;;;;4959134;28;20844;-75
2021/07/13 08:29:53;;;;;;;2.17;1.98;;;27.00;99.90;;;;;;4962979;28;20196;-78
2021/07/13 08:32:19;;;;;;;2.90;2.13;;;27.10;99.90;;;;;;4957867;28;20193;-80
2021/07/13 08:34:45;;;;;;;2.42;2.13;;;27.20;99.90;;;;;;4967036;28;20336;-76
2021/07/13 08:37:10;;;;;;;2.97;2.28;;;27.30;99.90;;;;;;4959350;28;20324;-75
2021/07/13 08:39:36;;;;;;;2.40;2.20;;;27.40;99.90;;;;;;4956367;28;20296;-79
2021/07/13 08:42:03;;;;;;;2.58;2.33;;;27.30;99.90;;;;;;4954360;28;20189;-77
2021/07/13 08:44:30;;;;;;;2.17;1.98;;;27.30;99.90;;;;;;4956517;28;20729;-78
2021/07/13 08:46:56;;;;;;;2.00;1.90;;;27.30;99.90;;;;;;4966649;28;20284;-77
2021/07/13 08:49:22;;;;;;;2.38;1.95;;;27.50;99.90;;;;;;4955108;28;20245;-78
2021/07/13 08:51:48;;;;;;;2.38;2.17;;;27.70;99.90;;;;;;4965869;28;21054;-76
2021/07/13 08:54:13;;;;;;;2.13;1.98;;;27.70;99.90;;;;;;4964373;28;20215;-80
2021/07/13 08:56:39;;;;;;;2.15;1.95;;;27.60;99.90;;;;;;4959385;28;20315;-78
2021/07/13 08:59:06;;;;;;;1.95;1.85;;;27.40;99.90;;;;;;4962900;28;20205;-79
2021/07/13 09:01:31;;;;;;;2.15;2.05;;;27.10;99.90;;;;;;4964384;28;20323;-77
2021/07/13 09:04:04;;;;;;;29.15;2.60;;;26.70;99.90;;;;;;4963789;28;20730;-80
2021/07/13 09:06:53;;;;;;;2.30;2.10;;;26.50;99.90;;;;;;4963047;28;20340;-78
2021/07/13 09:09:24;;;;;;;2.30;2.10;;;26.50;99.90;;;;;;4962832;28;20283;-77
2021/07/13 09:12:04;;;;;;;2.08;1.98;;;26.60;99.90;;;;;;4955798;28;20569;-76
2021/07/13 09:14:48;;;;;;;1.95;1.85;;;26.70;99.90;;;;;;4959356;28;20592;-80
2021/07/13 09:17:32;;;;;;;1.73;1.63;;;26.90;99.90;;;;;;4954064;28;20212;-78
2021/07/13 09:19:59;;;;;;;2.00;1.83;;;27.20;99.90;;;;;;4963023;28;20296;-78
2021/07/13 09:22:25;;;;;;;2.40;2.20;;;27.50;99.90;;;;;;4961266;28;20284;-76
2021/07/13 09:24:50;;;;;;;2.53;2.33;;;27.70;99.90;;;;;;4954134;28;20717;-77
2021/07/13 09:27:19;;;;;;;2.28;2.08;;;27.60;99.90;;;;;;4952450;28;20575;-78
2021/07/13 09:29:46;;;;;;;2.83;2.38;;;27.80;99.90;;;;;;4957512;28;20181;-77
2021/07/13 09:32:29;;;;;;;2.50;2.30;;;27.70;99.90;;;;;;4964230;28;20604;-78
2021/07/13 09:35:02;;;;;;;2.28;2.08;;;27.60;99.90;;;;;;4961741;28;20193;-77
2021/07/13 09:37:39;;;;;;;2.50;2.30;;;27.60;99.90;;;;;;4956368;28;20594;-77
2021/07/13 09:40:08;;;;;;;2.50;2.30;;;27.60;99.90;;;;;;4956480;28;20238;-77
2021/07/13 09:42:37;;;;;;;2.33;1.92;;;27.70;99.90;;;;;;4959424;28;20691;-77
2021/07/13 09:45:14;;;;;;;1.90;1.70;;;27.70;99.90;;;;;;4957965;28;20647;-78
2021/07/13 09:47:40;;;;;;;2.13;2.00;;;27.70;99.90;;;;;;4963156;28;20201;-78
2021/07/13 09:50:09;;;;;;;2.05;1.88;;;27.90;99.90;;;;;;4955548;28;20685;-77
2021/07/13 09:52:36;;;;;;;2.65;2.45;;;27.90;99.90;;;;;;4952674;28;20309;-78
2021/07/13 09:55:17;;;;;;;2.58;2.38;;;27.70;99.90;;;;;;4951557;28;20264;-78
2021/07/13 09:57:43;;;;;;;2.40;2.20;;;27.90;99.90;;;;;;4958492;28;20292;-78
2021/07/13 10:00:10;;;;;;;2.55;2.35;;;28.00;99.90;;;;;;4951924;28;20924;-78
2021/07/13 10:02:35;;;;;;;2.42;2.22;;;28.20;99.90;;;;;;4955140;28;20197;-78
2021/07/13 10:05:03;;;;;;;2.20;2.00;;;28.40;99.90;;;;;;4955507;28;20208;-78
2021/07/13 10:07:30;;;;;;;2.53;2.22;;;27.90;99.90;;;;;;4961751;28;20700;-78
2021/07/13 10:09:57;;;;;;;2.53;2.35;;;27.70;99.90;;;;;;4958372;28;20191;-78
2021/07/13 10:12:26;;;;;;;3.00;2.60;;;27.80;99.90;;;;;;4958484;28;20188;-78
2021/07/13 10:14:56;;;;;;;2.63;2.42;;;27.90;99.90;;;;;;4953400;28;20247;-78
2021/07/13 10:17:25;;;;;;;2.50;2.30;;;28.20;99.90;;;;;;4956827;28;20702;-75
2021/07/13 10:19:55;;;;;;;2.80;2.50;;;28.20;99.90;;;;;;4953386;28;20209;-79
2021/07/13 10:22:24;;;;;;;3.15;2.40;;;28.50;99.90;;;;;;4962190;28;20177;-78
2021/07/13 10:24:54;;;;;;;2.78;2.58;;;28.50;99.90;;;;;;4955361;28;20189;-78
2021/07/13 10:27:34;;;;;;;2.58;2.38;;;28.70;99.90;;;;;;4962206;28;20223;-78
2021/07/13 10:30:07;;;;;;;2.35;2.15;;;28.60;99.90;;;;;;4959930;28;20247;-79
2021/07/13 10:32:36;;;;;;;2.70;2.50;;;28.60;99.90;;;;;;4959412;28;20184;-79
2021/07/13 10:35:15;;;;;;;2.30;2.10;;;28.50;99.90;;;;;;4957470;28;20197;-77
2021/07/13 10:37:42;;;;;;;2.50;2.30;;;28.50;99.90;;;;;;4956951;28;20606;-79
2021/07/13 10:40:14;;;;;;;2.45;2.25;;;28.60;99.90;;;;;;4956301;28;20197;-77
2021/07/13 10:42:40;;;;;;;2.25;2.05;;;28.40;99.90;;;;;;4962393;28;20192;-78
2021/07/13 10:45:27;;;;;;;2.17;2.08;;;28.30;99.90;;;;;;4952976;28;20671;-78
2021/07/13 10:48:04;;;;;;;2.15;1.90;;;28.10;99.90;;;;;;4962570;28;20196;-78
2021/07/13 10:50:30;;;;;;;2.20;2.10;;;28.30;99.90;;;;;;4958548;28;20185;-78
2021/07/13 10:53:07;;;;;;;2.67;2.47;;;28.50;99.90;;;;;;4960193;28;20228;-78
2021/07/13 10:55:37;;;;;;;10.10;3.25;;;29.10;99.90;;;;;;4949279;28;20449;-78
2021/07/13 10:58:14;;;;;;;2.85;2.28;;;28.90;99.90;;;;;;4956071;28;20219;-77
2021/07/13 11:00:53;;;;;;;2.28;2.17;;;29.20;99.90;;;;;;4955277;28;20758;-77
2021/07/13 11:03:31;;;;;;;2.30;2.13;;;29.20;99.90;;;;;;4960966;28;20193;-77
2021/07/13 11:05:58;;;;;;;2.42;2.22;;;29.50;99.90;;;;;;4953372;28;20713;-78
2021/07/13 11:08:44;;;;;;;2.70;2.50;;;29.40;99.90;;;;;;4958436;28;20280;-78
2021/07/13 11:11:15;;;;;;;2.97;2.78;;;29.60;99.90;;;;;;4960039;28;20185;-77
2021/07/13 11:14:04;;;;;;;2.70;2.50;;;29.50;99.90;;;;;;4961913;28;20192;-78
2021/07/13 11:16:40;;;;;;;2.90;2.70;;;29.50;99.90;;;;;;4961204;28;20201;-78
2021/07/13 11:19:12;;;;;;;2.92;2.72;;;29.50;99.90;;;;;;4957154;28;20658;-77
2021/07/13 11:21:41;;;;;;;2.50;2.30;;;29.40;99.90;;;;;;4968489;28;20177;-76
2021/07/13 11:24:06;;;;;;;2.15;2.05;;;29.00;99.90;;;;;;4952789;28;20180;-77
2021/07/13 11:26:34;;;;;;;3.17;2.50;;;28.90;99.90;;;;;;4961888;28;20212;-77
2021/07/13 11:29:02;;;;;;;2.75;2.28;;;28.80;99.90;;;;;;4951519;28;20318;-77
2021/07/13 11:31:34;;;;;;;2.95;2.45;;;28.70;99.90;;;;;;4956589;28;20927;-77
2021/07/13 11:34:07;;;;;;;2.80;2.60;;;28.60;99.90;;;;;;4948843;28;20189;-76
2021/07/13 11:36:41;;;;;;;3.88;2.58;;;28.80;99.90;;;;;;4952467;28;20408;-77
2021/07/13 11:39:09;;;;;;;5.57;2.95;;;28.80;99.90;;;;;;4962063;28;20220;-76
2021/07/13 11:41:35;;;;;;;3.13;2.33;;;29.00;99.90;;;;;;4956151;28;20543;-76
2021/07/13 11:44:04;;;;;;;2.63;2.42;;;29.40;99.90;;;;;;4956875;28;20181;-76
2021/07/13 11:46:32;;;;;;;2.95;2.75;;;29.60;99.90;;;;;;4952553;28;20205;-76
2021/07/13 11:49:00;;;;;;;2.95;2.65;;;29.70;99.90;;;;;;4957688;28;20182;-77
2021/07/13 11:51:31;;;;;;;2.60;2.40;;;29.50;99.90;;;;;;4954620;28;20245;-76
2021/07/13 11:54:05;;;;;;;2.50;2.30;;;29.60;99.90;;;;;;4956966;28;20758;-76
2021/07/13 11:56:32;;;;;;;2.67;2.47;;;29.70;99.90;;;;;;4953596;28;20205;-76
2021/07/13 11:59:00;;;;;;;3.72;2.47;;;29.90;99.90;;;;;;4957086;28;20260;-76
2021/07/13 12:01:27;;;;;;;3.03;2.70;;;30.10;99.90;;;;;;4958500;28;20244;-76
2021/07/13 12:03:54;;;;;;;3.08;2.70;;;30.10;99.90;;;;;;4957128;28;20465;-77
2021/07/13 12:06:24;;;;;;;3.20;2.90;;;29.90;99.90;;;;;;4955584;28;20205;-76
2021/07/13 12:08:54;;;;;;;3.17;2.88;;;29.70;99.90;;;;;;4958134;28;20193;-76
2021/07/13 12:11:25;;;;;;;3.00;2.80;;;29.60;99.90;;;;;;4951317;28;20184;-76
2021/07/13 12:13:51;;;;;;;2.58;2.38;;;29.30;99.90;;;;;;4955005;28;20181;-76
2021/07/13 12:16:18;;;;;;;3.20;2.90;;;29.30;99.90;;;;;;4950649;28;20288;-76
2021/07/13 12:18:44;;;;;;;2.92;2.63;;;29.10;99.90;;;;;;4958866;28;20729;-76
2021/07/13 12:21:15;;;;;;;2.55;2.35;;;29.20;99.90;;;;;;4960166;28;20256;-76
2021/07/13 12:23:44;;;;;;;2.25;2.13;;;28.90;99.90;;;;;;4954031;28;20682;-77
2021/07/13 12:26:30;;;;;;;2.83;2.63;;;28.70;99.90;;;;;;4955434;28;20574;-76
2021/07/13 12:29:11;;;;;;;2.58;2.25;;;28.60;99.90;;;;;;4955580;28;20188;-77
2021/07/13 12:31:48;;;;;;;3.00;2.63;;;28.60;99.90;;;;;;4963902;28;20217;-76
2021/07/13 12:34:21;;;;;;;2.75;2.55;;;28.80;99.90;;;;;;4962940;28;20220;-77
2021/07/13 12:36:46;;;;;;;2.67;2.47;;;29.00;99.90;;;;;;4956335;28;20288;-77
2021/07/13 12:39:17;;;;;;;3.45;2.20;;;29.20;99.90;;;;;;4950881;28;20213;-77
2021/07/13 12:41:45;;;;;;;2.83;2.53;;;29.30;99.90;;;;;;4953951;28;20206;-76
2021/07/13 12:44:31;;;;;;;2.80;2.60;;;29.10;99.90;;;;;;4961640;28;20473;-77
2021/07/13 12:47:34;;;;;;;2.60;2.40;;;28.80;99.90;;;;;;4957018;28;20519;-77
2021/07/13 12:50:08;;;;;;;3.35;2.63;;;28.70;99.90;;;;;;4959685;28;20231;-77
2021/07/13 12:52:39;;;;;;;2.67;2.47;;;28.50;99.90;;;;;;4961481;28;20228;-76
2021/07/13 12:55:09;;;;;;;2.72;2.50;;;28.40;99.90;;;;;;4956683;28;20690;-76
2021/07/13 12:57:37;;;;;;;2.60;2.40;;;28.30;99.90;;;;;;4946761;28;20276;-77
2021/07/13 13:00:10;;;;;;;2.42;2.22;;;28.40;99.90;;;;;;4957586;28;20288;-77
2021/07/13 13:02:36;;;;;;;2.75;2.53;;;28.20;99.90;;;;;;4959052;28;20538;-77